Date,TemperatureHighF,TemperatureAvgF,TemperatureLowF,DewpointHighF,DewpointAvgF,DewpointLowF,HumidityHigh,HumidityAvg,HumidityLow,PressureMaxIn,PressureMinIn,WindSpeedMaxMPH,WindSpeedAvgMPH,GustSpeedMaxMPH,PrecipitationSumIn
2012-1-1,58.0,50.6,41.0,42.0,30.3,27.0,67,47,31,30.54,30.03,10,4,19,0.00
2012-1-2,57.0,44.6,34.0,28.0,25.2,22.0,70,49,28,30.69,30.54,7,2,14,0.00
2012-1-3,61.0,48.4,34.0,38.0,24.8,23.0,72,41,24,30.57,30.17,5,2,13,0.00
2012-1-4,70.0,53.4,46.0,47.0,39.4,33.0,82,61,38,30.24,30.12,5,1,14,0.00
2012-1-5,69.0,53.5,41.0,52.0,41.7,33.0,87,65,45,30.27,30.03,2,0,6,0.00
2012-1-6,72.0,60.7,53.0,56.0,51.8,46.0,92,74,51,30.03,29.80,6,2,16,0.00
2012-1-7,66.0,56.4,47.0,56.0,42.8,36.0,95,63,36,29.98,29.82,5,1,11,0.00
2012-1-8,60.0,52.6,43.0,54.0,46.1,38.0,88,78,60,29.98,29.89,6,2,13,0.00
2012-1-9,55.0,46.3,38.0,50.0,45.0,37.0,98,96,78,30.02,29.89,7,3,14,0.40
2012-1-10,58.0,44.6,37.0,43.0,36.8,33.0,97,77,45,30.01,29.84,4,1,14,0.02
2012-1-11,76.0,57.9,41.0,40.0,36.7,33.0,75,49,23,29.88,29.59,7,2,18,0.00
2012-1-12,46.0,38.1,30.0,36.0,18.7,10.0,74,48,25,30.23,29.88,10,4,20,0.00
2012-1-13,57.0,42.3,31.0,27.0,20.8,17.0,65,44,21,30.30,30.19,3,1,8,0.00
2012-1-14,67.0,50.4,33.0,28.0,21.9,16.0,53,34,19,30.35,30.21,3,1,7,0.00
2012-1-15,62.0,53.8,44.0,58.0,42.5,28.0,89,66,46,30.24,30.08,7,3,15,0.00
2012-1-16,71.0,64.0,60.0,63.0,60.0,57.0,96,87,74,30.08,29.83,9,5,19,0.00
2012-1-17,70.0,60.2,39.0,63.0,48.2,28.0,96,68,38,30.20,29.83,8,4,17,0.00
2012-1-18,69.0,47.3,30.0,41.0,31.0,23.0,75,56,29,30.24,29.97,5,1,10,0.00
2012-1-19,81.0,63.2,51.0,54.0,48.5,39.0,90,62,31,29.97,29.75,5,2,13,0.00
2012-1-20,73.0,63.8,56.0,62.0,59.0,52.0,97,85,67,29.78,29.66,5,3,14,0.01
2012-1-21,64.0,50.5,40.0,59.0,41.8,33.0,95,73,52,29.98,29.74,5,2,12,0.01
2012-1-22,79.0,60.6,45.0,65.0,51.0,25.0,98,74,29,29.85,29.65,6,2,15,0.00
2012-1-23,65.0,53.4,44.0,40.0,35.7,26.0,73,52,33,30.06,29.85,4,1,9,0.00
2012-1-24,66.0,56.7,48.0,65.0,51.5,38.0,99,84,62,29.94,29.70,7,2,16,0.33
2012-1-25,67.0,53.8,45.0,66.0,52.2,43.0,99,95,87,29.88,29.60,9,2,18,2.09
2012-1-26,66.0,52.0,40.0,45.0,41.0,36.0,98,71,34,30.03,29.86,4,1,13,0.02
2012-1-27,71.0,56.8,44.0,46.0,41.5,37.0,79,58,37,30.04,29.84,8,2,17,0.01
2012-1-28,57.0,48.1,39.0,42.0,30.1,23.0,71,51,28,30.36,30.04,9,4,16,0.00
2012-1-29,63.0,47.0,34.0,37.0,30.3,24.0,72,54,31,30.42,30.26,3,1,8,0.00
2012-1-30,63.0,53.9,45.0,57.0,49.0,35.0,98,84,60,30.26,30.05,5,2,12,0.16
2012-1-31,72.0,62.4,57.0,61.0,58.2,55.0,98,87,67,30.06,29.91,4,2,12,0.17
2012-2-1,80.0,66.7,58.0,65.0,58.8,52.0,99,79,41,30.05,29.92,2,0,7,0.01
2012-2-2,71.0,61.9,54.0,65.0,59.3,51.0,97,91,80,29.99,29.82,4,2,13,0.01
2012-2-3,72.0,67.2,64.0,65.0,63.4,59.0,96,88,75,29.87,29.79,6,2,16,0.01
2012-2-4,66.0,52.2,47.0,65.0,43.4,36.0,96,72,52,30.20,29.85,9,4,19,0.09
2012-2-5,47.0,42.7,37.0,38.0,35.3,33.0,92,75,65,30.32,30.19,10,5,19,0.09
2012-2-6,50.0,42.9,36.0,41.0,36.3,33.0,90,78,61,30.30,30.11,5,1,8,0.02
2012-2-7,64.0,49.8,39.0,45.0,40.9,37.0,95,73,49,30.27,30.09,4,1,11,0.02
2012-2-8,54.0,44.5,36.0,42.0,38.2,33.0,91,79,62,30.42,30.25,5,2,11,0.00
2012-2-9,57.0,45.1,34.0,44.0,39.0,33.0,97,81,58,30.29,30.06,5,1,9,0.00
2012-2-10,60.0,50.7,44.0,48.0,42.3,34.0,97,75,43,30.26,30.00,7,2,14,0.18
2012-2-11,48.0,38.9,31.0,35.0,25.8,16.0,92,62,35,30.51,30.26,8,4,15,0.02
2012-2-12,39.0,32.8,25.0,33.0,21.2,16.0,87,62,48,30.51,30.12,6,3,12,0.01
2012-2-13,71.0,49.2,36.0,55.0,43.5,33.0,98,83,47,30.12,29.78,3,1,9,0.35
2012-2-14,75.0,59.9,47.0,60.0,52.5,45.0,97,78,44,29.87,29.73,6,2,17,0.01
2012-2-15,76.0,65.9,57.0,65.0,55.0,40.0,98,72,37,29.95,29.75,7,2,16,0.01
2012-2-16,62.0,52.7,45.0,47.0,42.4,36.0,87,69,48,30.16,29.95,9,2,12,0.00
2012-2-17,54.0,51.0,47.0,54.0,49.8,45.0,99,97,87,30.05,29.79,7,3,12,0.90
2012-2-18,54.0,52.3,51.0,54.0,52.1,50.0,99,99,98,29.85,29.72,8,2,12,1.95
2012-2-19,60.0,52.4,45.0,47.0,44.9,43.0,91,76,59,30.02,29.95,4,1,10,0.01
2012-2-20,69.0,55.1,45.0,56.0,50.4,43.0,96,85,61,30.05,29.91,4,2,12,0.00
2012-2-21,74.0,60.5,49.0,59.0,53.5,48.0,98,80,48,30.09,29.86,5,1,16,0.00
2012-2-22,86.0,70.6,60.0,61.0,51.8,27.0,94,60,13,29.86,29.58,5,2,16,0.00
2012-2-23,90.0,74.3,64.0,56.0,47.2,36.0,69,42,16,29.66,29.44,7,2,18,0.00
2012-2-24,63.0,52.2,43.0,44.0,24.3,17.0,52,34,21,30.32,29.64,14,6,24,0.00
2012-2-25,61.0,47.4,37.0,33.0,24.6,17.0,69,44,19,30.37,30.15,4,1,14,0.00
2012-2-26,64.0,51.5,38.0,50.0,42.1,31.0,89,71,54,30.14,29.96,6,2,15,0.00
2012-2-27,65.0,60.2,56.0,60.0,56.8,51.0,98,89,79,30.15,30.03,7,3,16,0.03
2012-2-28,76.0,66.0,60.0,67.0,62.8,59.0,99,90,69,30.05,29.77,8,4,22,0.05
2012-2-29,76.0,66.9,57.0,66.0,54.5,42.0,98,69,30,29.96,29.81,7,2,14,0.06
2012-3-1,72.0,63.9,53.0,66.0,59.1,47.0,95,85,59,29.86,29.59,5,1,12,0.05
2012-3-2,79.0,68.8,56.0,68.0,53.6,35.0,95,65,22,29.70,29.54,7,2,15,0.00
2012-3-3,64.0,53.9,46.0,41.0,28.7,16.0,61,40,19,30.13,29.70,10,4,17,0.00
2012-3-4,73.0,57.2,40.0,34.0,27.9,23.0,59,36,18,30.19,30.05,6,2,12,0.00
2012-3-5,75.0,61.5,51.0,49.0,38.9,31.0,79,46,22,30.25,30.11,7,4,15,0.00
2012-3-6,72.0,61.1,53.0,58.0,52.4,49.0,90,75,49,30.14,29.88,10,5,23,0.00
2012-3-7,71.0,65.5,62.0,65.0,61.4,57.0,94,87,79,29.88,29.76,13,6,29,0.03
2012-3-8,81.0,63.3,43.0,68.0,58.1,41.0,94,84,59,30.15,29.77,9,5,21,0.01
2012-3-9,43.0,40.0,38.0,41.0,38.5,37.0,98,95,84,30.30,30.14,9,4,20,0.61
2012-3-10,49.0,44.2,39.0,49.0,42.4,-99.9,99,98,98,30.26,29.94,12,2,18,1.09
2012-3-11,77.0,59.5,48.0,59.0,51.6,46.0,99,79,37,30.00,29.86,3,1,8,0.21
2012-3-12,82.0,66.1,53.0,63.0,56.4,49.0,94,73,45,29.99,29.88,4,2,13,0.06
2012-3-13,78.0,68.7,63.0,67.0,63.8,61.0,96,85,62,30.01,29.89,5,2,15,0.00
2012-3-14,78.0,69.1,65.0,67.0,64.3,62.0,93,85,68,30.00,29.91,6,3,15,0.00
2012-3-15,81.0,70.3,65.0,66.0,64.0,62.0,94,81,56,30.05,29.91,6,3,16,0.00
2012-3-16,78.0,69.7,66.0,67.0,64.2,63.0,94,83,63,30.00,29.86,7,3,15,0.00
2012-3-17,78.0,68.5,65.0,65.0,63.6,62.0,92,85,64,29.92,29.82,6,3,16,0.00
2012-3-18,74.0,68.5,64.0,67.0,64.2,61.0,92,86,74,29.89,29.73,8,4,20,0.01
2012-3-19,76.0,70.4,65.0,67.0,65.4,57.0,93,84,69,29.76,29.43,10,6,26,0.01
2012-3-20,68.0,56.0,49.0,57.0,46.7,-99.9,98,76,40,29.78,29.50,12,2,21,2.95
2012-3-21,70.0,58.1,47.0,44.0,39.4,34.0,75,51,33,29.81,29.73,5,2,13,0.02
2012-3-22,82.0,64.4,53.0,49.0,41.3,-99.9,73,47,20,29.90,29.72,8,-4,20,0.00
2012-3-23,84.0,63.8,45.0,55.0,47.4,41.0,90,59,29,29.97,29.82,4,1,10,0.00
2012-3-24,82.0,66.7,55.0,65.0,59.5,54.0,98,80,51,29.97,29.85,4,1,10,0.00
2012-3-25,83.0,69.3,58.0,65.0,59.1,53.0,99,73,36,29.99,29.87,5,1,9,0.01
2012-3-26,82.0,69.6,59.0,59.0,56.6,53.0,95,67,38,29.97,29.83,5,2,13,0.01
2012-3-27,80.0,66.6,57.0,65.0,59.6,53.0,95,79,60,29.96,29.86,7,2,16,0.00
2012-3-28,70.0,65.3,62.0,67.0,63.4,61.0,98,93,85,29.93,29.82,4,2,14,0.40
2012-3-29,82.0,69.2,62.0,69.0,65.0,61.0,99,88,64,29.85,29.68,4,1,9,0.28
2012-3-30,86.0,73.1,64.0,67.0,64.5,62.0,98,77,47,29.77,29.64,5,2,15,0.00
2012-3-31,92.0,75.9,64.0,69.0,63.9,56.0,97,71,31,29.75,29.63,6,2,14,0.00
2012-4-1,89.0,74.7,64.0,68.0,65.4,63.0,96,75,46,29.69,29.55,6,3,15,0.01
2012-4-2,85.0,73.8,64.0,70.0,64.6,59.0,97,75,44,29.59,29.43,7,3,19,0.01
2012-4-3,85.0,72.0,63.0,70.0,62.9,46.0,95,75,43,29.72,29.52,5,1,14,0.36
2012-4-4,85.0,67.5,50.0,57.0,48.8,42.0,83,55,23,29.82,29.64,3,1,8,0.34
2012-4-5,90.0,74.3,63.0,66.0,60.8,55.0,97,67,33,29.77,29.65,6,2,11,0.00
2012-4-6,82.0,69.2,58.0,64.0,58.3,53.0,85,70,49,29.90,29.77,7,2,14,0.00
2012-4-7,83.0,71.6,63.0,65.0,63.2,61.0,96,77,51,30.07,29.88,5,2,12,0.00
2012-4-8,82.0,69.7,60.0,63.0,59.5,56.0,97,73,47,30.13,30.02,5,1,11,0.00
2012-4-9,83.0,69.4,61.0,63.0,59.1,56.0,96,73,45,30.07,29.94,4,1,10,0.00
2012-4-10,84.0,69.6,58.0,62.0,58.4,55.0,94,70,39,30.02,29.91,5,1,11,0.00
2012-4-11,83.0,69.9,58.0,64.0,60.3,57.0,98,74,45,30.01,29.85,5,2,12,0.00
2012-4-12,80.0,71.0,66.0,66.0,64.2,60.0,92,80,60,29.92,29.78,7,3,18,0.00
2012-4-13,80.0,71.4,67.0,69.0,65.7,63.0,94,83,66,29.87,29.72,7,3,17,0.02
2012-4-14,77.0,72.2,70.0,68.0,66.0,-99.9,89,83,72,29.76,29.58,8,6,22,0.01
2012-4-15,75.0,70.7,57.0,69.0,59.7,49.0,88,70,41,29.82,29.55,8,4,20,0.04
2012-4-16,75.0,63.8,53.0,56.0,49.4,43.0,83,62,32,30.05,29.82,12,3,17,0.03
2012-4-17,81.0,66.4,53.0,59.0,49.8,41.0,98,63,25,30.13,30.01,6,2,14,0.00
2012-4-18,84.0,69.5,59.0,61.0,54.3,46.0,97,62,30,30.08,29.87,5,2,12,0.00
2012-4-19,84.0,69.9,58.0,61.0,54.3,50.0,80,60,37,29.89,29.65,5,3,13,0.00
2012-4-20,74.0,66.2,61.0,64.0,57.1,44.0,92,75,45,29.91,29.62,9,4,19,0.04
2012-4-21,78.0,62.9,45.0,47.0,43.4,40.0,89,53,27,29.99,29.88,7,2,19,0.02
2012-4-22,90.0,74.7,54.0,50.0,45.8,40.0,63,38,22,30.03,29.90,5,1,9,0.00
2012-4-23,80.0,67.1,56.0,49.0,42.6,38.0,56,42,27,30.13,29.93,9,2,15,0.00
2012-4-24,87.0,71.7,57.0,59.0,52.1,43.0,82,52,33,29.97,29.78,5,2,14,0.00
2012-4-25,92.0,76.5,64.0,69.0,63.1,58.0,89,67,38,29.80,29.67,8,4,21,0.00
2012-4-26,93.0,77.1,66.0,69.0,64.2,59.0,86,68,33,29.74,29.65,7,4,17,0.00
2012-4-27,89.0,75.2,65.0,67.0,62.5,59.0,89,68,38,29.74,29.61,7,5,19,0.00
2012-4-28,88.0,74.5,67.0,67.0,62.6,-99.9,89,70,45,29.76,29.63,7,4,20,0.00
2012-4-29,84.0,75.1,69.0,68.0,64.6,61.0,88,72,46,29.83,29.67,10,4,23,0.00
2012-4-30,84.0,75.4,71.0,69.0,67.5,65.0,91,77,59,29.87,29.75,7,3,15,0.00
2012-5-1,86.0,75.5,69.0,69.0,67.0,65.0,92,76,50,29.86,29.69,6,3,14,0.00
2012-5-2,85.0,74.6,69.0,69.0,66.1,65.0,89,76,55,29.80,29.70,6,2,17,0.00
2012-5-3,91.0,78.1,68.0,70.0,67.9,66.0,93,73,48,29.84,29.71,5,2,12,0.00
2012-5-4,93.0,79.1,70.0,71.0,68.2,66.0,92,72,43,29.88,29.70,6,3,14,0.00
2012-5-5,94.0,80.2,69.0,73.0,68.7,-99.9,95,72,48,29.85,29.63,6,3,13,0.00
2012-5-6,90.0,76.3,64.0,71.0,65.5,53.0,95,72,37,29.81,29.67,14,3,25,0.94
2012-5-7,90.0,75.9,65.0,74.0,68.5,60.0,96,79,55,29.83,29.64,8,2,17,0.03
2012-5-8,66.0,64.2,61.0,65.0,62.3,59.0,98,94,82,29.93,29.74,7,1,11,0.46
2012-5-9,79.0,67.5,59.0,66.0,61.5,58.0,99,83,57,29.98,29.81,9,2,17,0.14
2012-5-10,72.0,65.7,59.0,67.0,62.9,58.0,98,91,80,29.83,29.61,10,2,19,2.92
2012-5-11,79.0,66.4,58.0,68.0,62.4,57.0,99,88,61,29.86,29.67,4,1,9,2.64
2012-5-12,77.0,66.5,58.0,65.0,59.4,-99.9,98,82,57,30.04,29.86,4,1,12,0.20
2012-5-13,81.0,68.9,57.0,62.0,58.0,55.0,98,71,45,30.10,29.96,7,2,13,0.01
2012-5-14,83.0,70.4,60.0,63.0,58.5,55.0,95,68,44,30.01,29.85,5,1,11,0.61
2012-5-15,72.0,64.0,61.0,64.0,61.0,59.0,98,91,70,30.00,29.89,6,1,11,1.19
2012-5-16,84.0,69.6,55.0,63.0,57.6,53.0,99,70,36,30.01,29.87,5,1,9,0.01
2012-5-17,88.0,74.7,60.0,63.0,57.6,54.0,87,59,33,29.93,29.79,3,1,8,0.01
2012-5-18,86.0,73.8,61.0,65.0,61.4,57.0,92,68,45,29.85,29.72,5,2,14,0.00
2012-5-19,87.0,75.8,68.0,68.0,64.7,62.0,90,71,45,29.85,29.75,6,3,19,0.00
2012-5-20,86.0,75.4,67.0,68.0,63.4,58.0,93,69,40,29.99,29.84,5,2,14,0.00
2012-5-21,90.0,76.5,63.0,66.0,62.2,59.0,95,65,40,30.03,29.91,4,1,14,0.00
2012-5-22,91.0,78.9,68.0,65.0,61.0,57.0,73,56,38,29.93,29.71,4,1,10,0.00
2012-5-23,89.0,76.7,66.0,71.0,65.9,56.0,91,71,54,29.72,29.49,7,4,16,0.00
2012-5-24,91.0,78.0,71.0,72.0,69.3,67.0,87,76,53,29.62,29.49,8,4,16,0.00
2012-5-25,91.0,80.0,71.0,71.0,69.4,67.0,89,72,49,29.81,29.61,7,4,19,0.00
2012-5-26,91.0,79.4,72.0,71.0,68.7,66.0,92,72,45,29.88,29.77,7,4,18,0.00
2012-5-27,89.0,78.0,69.0,68.0,66.5,64.0,92,70,46,29.85,29.72,5,3,13,0.00
2012-5-28,91.0,79.4,70.0,69.0,67.6,66.0,92,69,47,29.79,29.67,5,2,13,0.00
2012-5-29,94.0,81.2,70.0,72.0,69.2,67.0,94,69,45,29.78,29.68,6,2,14,0.00
2012-5-30,90.0,79.1,72.0,72.0,69.2,67.0,92,73,52,29.78,29.57,8,3,18,0.00
2012-5-31,91.0,78.2,69.0,71.0,65.1,56.0,91,68,32,29.82,29.55,10,3,19,0.03
2012-6-1,90.0,77.0,65.0,66.0,61.5,53.0,84,61,42,29.93,29.73,6,1,11,0.03
2012-6-2,92.0,79.6,68.0,70.0,65.6,-99.9,94,66,43,29.83,29.68,5,2,11,0.00
2012-6-3,91.0,79.2,72.0,71.0,69.4,67.0,91,73,49,29.80,29.69,8,3,19,0.00
2012-6-4,90.0,79.6,72.0,72.0,70.2,68.0,92,74,51,29.78,29.62,4,2,12,0.00
2012-6-5,94.0,81.3,69.0,73.0,68.5,63.0,96,68,42,29.74,29.59,4,1,12,0.00
2012-6-6,95.0,83.5,71.0,72.0,66.7,63.0,87,60,37,29.69,29.59,4,1,13,0.00
2012-6-7,82.0,74.8,69.0,70.0,67.0,64.0,89,77,62,29.86,29.67,10,2,19,0.02
2012-6-8,85.0,74.3,67.0,70.0,67.0,65.0,96,79,53,29.85,29.72,7,2,12,0.02
2012-6-9,92.0,79.1,66.0,70.0,64.3,-99.9,88,65,41,29.77,29.59,4,1,14,0.00
2012-6-10,96.0,82.8,70.0,74.0,70.1,66.0,93,68,46,29.68,29.59,6,3,14,0.00
2012-6-11,98.0,84.9,74.0,73.0,70.8,67.0,91,66,38,29.85,29.65,6,3,15,0.00
2012-6-12,96.0,81.4,69.0,75.0,70.6,64.0,89,72,43,29.90,29.78,16,4,30,0.00
2012-6-13,95.0,80.3,69.0,73.0,68.7,65.0,93,71,41,29.97,29.71,5,2,13,0.00
2012-6-14,93.0,81.5,73.0,74.0,70.0,66.0,89,70,44,29.80,29.70,6,3,15,0.00
2012-6-15,95.0,82.3,73.0,71.0,68.6,64.0,88,66,40,29.85,29.73,6,3,16,0.00
2012-6-16,95.0,82.0,71.0,72.0,67.6,-99.9,95,67,39,29.91,29.77,5,2,15,0.00
2012-6-17,93.0,81.4,71.0,72.0,68.3,65.0,94,67,41,29.90,29.70,4,2,11,0.00
2012-6-18,93.0,78.8,67.0,73.0,67.4,65.0,95,71,45,29.80,29.62,5,2,14,0.08
2012-6-19,93.0,80.0,73.0,73.0,70.4,68.0,92,74,46,29.75,29.67,7,4,18,0.00
2012-6-20,86.0,77.8,74.0,76.0,71.5,69.0,97,81,59,29.84,29.73,5,3,16,0.31
2012-6-21,91.0,81.0,72.0,72.0,67.3,60.0,95,67,38,29.91,29.79,8,2,15,0.28
2012-6-22,93.0,81.4,67.0,71.0,64.5,60.0,96,61,35,29.86,29.73,7,1,15,0.00
2012-6-23,95.0,83.7,71.0,68.0,62.7,56.0,75,52,30,29.79,29.71,7,1,14,0.00
2012-6-24,99.0,85.3,71.0,70.0,66.2,63.0,85,55,32,29.85,29.74,4,1,11,0.00
2012-6-25,102.0,88.3,74.0,70.0,63.8,57.0,74,47,24,29.81,29.66,6,1,12,0.00
2012-6-26,105.0,90.5,74.0,66.0,61.8,57.0,57,40,26,29.71,29.58,5,1,12,0.00
2012-6-27,103.0,90.3,78.0,69.0,65.1,60.0,64,45,29,29.79,29.64,5,2,12,0.00
2012-6-28,98.0,86.1,74.0,69.0,64.0,60.0,81,50,29,29.90,29.79,5,2,11,0.00
2012-6-29,97.0,82.6,74.0,73.0,69.3,63.0,93,66,38,29.88,29.74,6,2,16,0.00
2012-6-30,90.0,80.0,71.0,73.0,70.0,65.0,95,73,51,29.79,29.70,6,2,12,0.00
2012-7-1,86.0,77.2,69.0,72.0,69.4,67.0,96,78,58,29.88,29.76,5,2,14,0.00
2012-7-2,93.0,82.4,75.0,74.0,68.9,62.0,93,67,39,29.94,29.82,6,2,15,0.00
2012-7-3,94.0,82.1,73.0,73.0,69.2,65.0,92,68,42,29.92,29.76,6,3,15,0.00
2012-7-4,96.0,83.5,74.0,72.0,68.5,64.0,89,64,36,29.89,29.76,5,3,16,0.00
2012-7-5,97.0,83.6,73.0,72.0,68.3,60.0,91,64,31,29.90,29.79,6,2,15,0.00
2012-7-6,99.0,83.8,72.0,72.0,66.4,60.0,93,60,30,29.93,29.80,4,1,11,0.00
2012-7-7,99.0,84.8,73.0,73.0,67.2,60.0,89,60,29,29.92,29.79,8,2,16,0.04
2012-7-8,94.0,78.5,72.0,74.0,70.4,67.0,94,78,46,29.90,29.80,4,1,10,0.09
2012-7-9,97.0,79.0,70.0,75.0,70.8,68.0,97,80,40,29.89,29.72,5,1,13,1.23
2012-7-10,89.0,75.8,69.0,75.0,71.5,68.0,99,88,58,29.84,29.72,6,1,13,1.69
2012-7-11,83.0,74.1,70.0,76.0,72.0,69.0,99,93,76,29.85,29.77,5,1,13,1.24
2012-7-12,91.0,80.0,70.0,75.0,71.1,68.0,99,77,49,29.85,29.75,4,1,9,0.01
2012-7-13,97.0,80.3,72.0,75.0,71.1,66.0,94,76,38,29.87,29.77,11,1,18,0.13
2012-7-14,93.0,79.9,69.0,77.0,70.5,67.0,99,76,45,29.90,29.78,6,1,17,0.14
2012-7-15,92.0,77.7,67.0,76.0,69.9,66.0,97,79,51,29.91,29.79,7,1,13,0.36
2012-7-16,91.0,85.9,77.0,74.0,69.3,64.0,79,59,42,29.89,29.78,6,2,15,0.75
2012-7-17,92.0,79.4,72.0,74.0,71.7,69.0,96,79,53,29.88,29.78,5,1,12,0.00
2012-7-18,88.0,79.1,73.0,74.0,72.1,69.0,97,80,56,29.92,29.83,4,1,9,0.00
2012-7-19,94.0,81.1,70.0,75.0,71.2,68.0,97,75,46,30.01,29.89,3,1,9,0.00
2012-7-20,97.0,84.1,72.0,73.0,69.7,65.0,94,65,37,29.98,29.83,3,1,8,0.00
2012-7-21,100.0,86.6,74.0,72.0,68.6,63.0,87,58,31,29.91,29.75,3,1,11,0.00
2012-7-22,96.0,83.9,74.0,74.0,69.6,65.0,88,64,39,29.91,29.79,5,2,11,0.00
2012-7-23,93.0,81.9,74.0,72.0,70.3,66.0,91,70,43,29.96,29.87,5,2,12,0.00
2012-7-24,95.0,82.6,74.0,74.0,70.6,65.0,95,70,43,29.95,29.79,6,2,13,0.00
2012-7-25,93.0,83.2,74.0,73.0,71.1,68.0,91,69,45,29.85,29.70,6,3,16,0.00
2012-7-26,94.0,82.4,73.0,75.0,71.0,69.0,91,71,45,29.82,29.69,6,3,14,0.00
2012-7-27,96.0,83.1,74.0,75.0,71.3,67.0,91,70,40,29.92,29.81,5,2,11,0.00
2012-7-28,99.0,84.1,72.0,73.0,68.3,59.0,94,63,29,30.00,29.87,4,1,13,0.00
2012-7-29,98.0,85.6,72.0,73.0,67.5,61.0,90,59,31,29.96,29.82,4,1,10,0.00
2012-7-30,98.0,85.2,71.0,73.0,67.4,64.0,87,58,34,29.90,29.76,5,1,11,0.00
2012-7-31,100.0,86.6,74.0,73.0,68.6,64.0,90,58,34,29.88,29.77,5,2,12,0.00
2012-8-1,101.0,87.6,74.0,72.0,66.2,61.0,85,53,28,29.85,29.72,5,2,16,0.00
2012-8-2,100.0,86.2,72.0,71.0,66.0,60.0,91,55,28,29.78,29.66,6,2,13,0.00
2012-8-3,99.0,84.9,73.0,72.0,67.5,64.0,89,59,34,29.77,29.67,5,3,16,0.00
2012-8-4,97.0,84.1,73.0,73.0,69.1,65.0,91,64,39,29.88,29.76,6,3,14,0.00
2012-8-5,95.0,82.6,71.0,74.0,69.5,64.0,97,68,37,29.98,29.88,7,2,16,0.00
2012-8-6,95.0,82.5,69.0,71.0,67.6,64.0,92,64,37,29.97,29.83,7,1,12,0.00
2012-8-7,99.0,86.4,73.0,73.0,68.4,64.0,87,58,34,29.86,29.74,6,2,13,0.00
2012-8-8,99.0,86.1,72.0,70.0,67.1,63.0,83,56,32,29.87,29.75,7,2,12,0.00
2012-8-9,100.0,86.5,74.0,72.0,68.5,64.0,85,58,34,29.85,29.72,4,1,10,0.00
2012-8-10,106.0,85.2,75.0,75.0,69.1,65.0,83,61,29,29.80,29.67,8,1,16,0.04
2012-8-11,100.0,86.1,71.0,71.0,65.2,59.0,82,54,27,29.82,29.72,6,1,10,0.04
2012-8-12,100.0,87.3,76.0,71.0,67.2,64.0,83,54,34,29.83,29.72,4,2,14,0.00
2012-8-13,102.0,85.1,73.0,73.0,69.5,66.0,91,63,33,29.90,29.74,10,1,15,0.07
2012-8-14,101.0,87.2,75.0,76.0,68.6,63.0,89,58,31,29.85,29.69,4,2,12,0.07
2012-8-15,99.0,83.8,74.0,72.0,66.4,57.0,90,60,28,29.80,29.68,6,3,15,0.00
2012-8-16,98.0,84.7,74.0,72.0,68.6,65.0,89,62,37,29.87,29.74,5,3,16,0.00
2012-8-17,99.0,85.7,74.0,73.0,69.1,64.0,94,62,35,29.87,29.71,4,1,11,0.00
2012-8-18,94.0,82.4,73.0,73.0,71.1,69.0,93,70,47,29.81,29.65,10,2,18,0.07
2012-8-19,87.0,75.3,69.0,73.0,69.5,67.0,98,84,58,29.85,29.75,9,2,21,0.18
2012-8-20,95.0,80.6,67.0,72.0,65.7,61.0,98,66,35,29.88,29.74,8,1,14,0.01
2012-8-21,91.0,77.9,70.0,68.0,63.0,58.0,85,62,40,29.90,29.80,9,3,15,0.01
2012-8-22,89.0,76.6,67.0,71.0,65.8,63.0,91,71,45,29.97,29.85,7,2,14,0.00
2012-8-23,94.0,81.1,70.0,72.0,66.7,62.0,95,65,38,29.91,29.77,7,2,14,0.00
2012-8-24,95.0,82.3,71.0,73.0,68.9,64.0,97,68,38,29.82,29.67,5,2,14,0.00
2012-8-25,96.0,82.3,72.0,71.0,69.1,66.0,91,67,39,29.78,29.68,6,4,17,0.00
2012-8-26,95.0,82.8,75.0,73.0,70.8,66.0,89,70,40,29.89,29.77,5,2,16,0.00
2012-8-27,97.0,82.8,71.0,73.0,67.4,62.0,96,64,33,29.94,29.79,7,2,12,0.00
2012-8-28,95.0,82.0,70.0,72.0,67.9,64.0,93,65,38,29.85,29.70,8,2,13,0.00
2012-8-29,95.0,83.0,73.0,69.0,65.0,56.0,87,58,31,29.75,29.60,10,3,20,0.00
2012-8-30,99.0,84.7,70.0,66.0,60.0,55.0,64,45,28,29.70,29.58,7,1,13,0.00
2012-8-31,100.0,86.6,76.0,71.0,64.6,59.0,71,50,28,29.83,29.69,5,2,11,0.00
2012-9-1,99.0,83.1,76.0,75.0,71.5,67.0,91,71,37,29.93,29.83,6,2,16,0.09
2012-9-2,98.0,83.7,72.0,73.0,68.5,59.0,95,65,34,29.93,29.78,5,2,12,0.09
2012-9-3,100.0,85.5,72.0,71.0,66.6,59.0,90,58,27,29.89,29.73,5,2,11,0.00
2012-9-4,101.0,85.7,73.0,73.0,68.2,58.0,92,61,29,29.84,29.69,5,2,13,0.00
2012-9-5,101.0,85.3,72.0,72.0,65.6,55.0,93,58,25,29.78,29.67,5,2,11,0.00
2012-9-6,101.0,86.0,72.0,73.0,66.1,60.0,91,56,31,29.83,29.70,6,1,13,0.00
2012-9-7,103.0,87.2,74.0,72.0,64.4,56.0,87,52,25,29.79,29.65,3,1,10,0.00
2012-9-8,86.0,78.5,71.0,67.0,56.9,43.0,70,49,30,29.96,29.69,10,4,20,0.00
2012-9-9,89.0,75.3,61.0,49.0,41.5,34.0,55,33,16,30.05,29.92,7,2,14,0.00
2012-9-10,91.0,77.1,59.0,53.0,42.0,37.0,51,31,17,30.02,29.87,6,1,14,0.00
2012-9-11,92.0,77.1,62.0,65.0,57.6,50.0,91,56,27,29.97,29.84,6,2,16,0.00
2012-9-12,96.0,80.7,70.0,71.0,68.8,65.0,95,70,38,29.93,29.78,4,2,13,0.00
2012-9-13,94.0,75.7,68.0,73.0,70.2,67.0,98,85,41,30.04,29.87,11,2,21,0.76
2012-9-14,69.0,65.6,64.0,69.0,64.4,62.0,99,96,89,30.12,30.02,4,2,11,2.24
2012-9-15,78.0,68.1,61.0,66.0,62.7,59.0,95,84,65,30.12,29.98,4,1,9,0.02
2012-9-16,69.0,64.8,63.0,66.0,63.4,62.0,99,96,88,30.01,29.85,2,0,5,2.27
2012-9-17,82.0,70.5,63.0,69.0,64.2,61.0,99,82,55,29.88,29.70,3,0,6,0.02
2012-9-18,82.0,72.0,63.0,68.0,63.5,60.0,96,76,53,29.97,29.78,5,2,12,0.01
2012-9-19,85.0,72.2,61.0,65.0,57.8,54.0,90,64,37,30.04,29.91,4,1,8,0.00
2012-9-20,89.0,75.4,66.0,68.0,62.4,55.0,97,67,36,29.98,29.85,3,1,10,0.00
2012-9-21,91.0,76.6,65.0,61.0,55.5,47.0,74,52,24,29.91,29.81,3,1,8,0.00
2012-9-22,89.0,75.1,62.0,63.0,57.9,-99.9,89,59,33,29.99,29.88,5,1,11,0.00
2012-9-23,90.0,77.4,65.0,68.0,62.3,58.0,93,63,34,30.07,29.98,5,1,9,0.00
2012-9-24,90.0,77.6,68.0,71.0,66.4,62.0,98,71,43,30.03,29.87,5,2,12,0.00
2012-9-25,89.0,78.6,71.0,70.0,66.2,60.0,90,68,42,29.92,29.78,6,3,17,0.00
2012-9-26,88.0,77.9,71.0,70.0,66.6,59.0,93,70,45,29.92,29.82,6,2,15,0.00
2012-9-27,88.0,75.9,67.0,72.0,67.6,64.0,98,77,50,29.96,29.84,6,2,12,0.00
2012-9-28,82.0,74.1,69.0,73.0,69.8,67.0,97,87,69,29.93,29.80,5,1,12,0.19
2012-9-29,81.0,71.1,66.0,74.0,69.3,64.0,99,95,79,29.85,29.58,5,2,16,1.19
2012-9-30,74.0,65.9,62.0,67.0,63.5,60.0,99,92,72,29.80,29.67,7,2,16,0.40
2012-10-1,78.0,67.0,57.0,67.0,59.1,53.0,99,78,50,29.82,29.73,4,1,11,0.03
2012-10-2,77.0,66.6,57.0,57.0,54.5,53.0,88,67,45,29.91,29.80,6,1,12,0.01
2012-10-3,82.0,69.8,59.0,61.0,55.7,52.0,80,63,42,29.92,29.83,5,2,13,0.00
2012-10-4,89.0,76.6,68.0,72.0,68.5,61.0,94,77,53,29.98,29.89,6,3,18,0.00
2012-10-5,87.0,76.0,68.0,70.0,66.5,63.0,97,75,47,29.97,29.83,5,2,14,0.00
2012-10-6,71.0,62.4,52.0,67.0,58.3,48.0,97,86,76,30.04,29.86,8,3,16,0.00
2012-10-7,54.0,50.1,46.0,49.0,43.6,40.0,90,79,68,30.16,30.04,8,5,16,0.00
2012-10-8,71.0,55.4,47.0,53.0,45.2,38.0,82,69,51,30.19,29.99,4,1,9,0.00
2012-10-9,80.0,66.3,55.0,66.0,59.3,50.0,91,78,61,30.00,29.83,4,2,14,0.00
2012-10-10,86.0,75.7,70.0,72.0,69.0,67.0,97,81,57,30.01,29.88,4,1,12,0.00
2012-10-11,84.0,74.3,70.0,74.0,70.8,68.0,97,89,71,30.01,29.92,5,2,16,0.00
2012-10-12,86.0,75.0,69.0,71.0,68.4,66.0,97,82,57,30.05,29.93,5,2,13,0.00
2012-10-13,82.0,75.0,71.0,74.0,71.2,69.0,96,88,72,29.97,29.74,6,3,18,0.03
2012-10-14,83.0,74.1,65.0,71.0,63.4,53.0,98,72,38,29.98,29.80,7,2,17,0.37
2012-10-15,77.0,67.0,58.0,58.0,53.6,50.0,82,63,43,30.03,29.89,6,1,9,0.31
2012-10-16,69.0,65.6,63.0,66.0,58.9,50.0,98,80,55,29.90,29.67,6,2,16,0.25
2012-10-17,91.0,73.5,62.0,72.0,64.3,54.0,99,76,43,29.69,29.51,5,2,11,0.09
2012-10-18,75.0,67.4,60.0,55.0,43.2,34.0,65,44,23,29.90,29.66,10,4,18,0.00
2012-10-19,81.0,64.5,46.0,46.0,38.2,31.0,79,42,19,29.97,29.83,4,1,9,0.00
2012-10-20,85.0,72.9,60.0,71.0,62.4,38.0,88,71,38,29.83,29.67,6,2,15,0.00
2012-10-21,88.0,77.5,71.0,71.0,68.6,65.0,93,76,50,29.82,29.72,6,4,16,0.00
2012-10-22,88.0,76.3,71.0,72.0,69.0,65.0,93,79,50,29.86,29.76,6,3,16,0.00
2012-10-23,83.0,73.6,70.0,70.0,68.3,66.0,93,84,63,29.86,29.78,5,2,14,0.00
2012-10-24,84.0,73.7,67.0,67.0,65.3,62.0,95,77,51,29.88,29.74,5,2,13,0.00
2012-10-25,86.0,73.9,61.0,69.0,65.2,51.0,93,76,52,29.90,29.70,6,2,15,0.00
2012-10-26,61.0,53.4,49.0,51.0,42.4,34.0,74,66,57,30.20,29.90,11,6,21,0.00
2012-10-27,59.0,50.1,42.0,36.0,32.8,31.0,65,52,34,30.25,30.08,6,3,13,0.00
2012-10-28,63.0,51.6,38.0,34.0,31.0,27.0,74,47,26,30.23,30.10,6,2,10,0.00
2012-10-29,71.0,54.7,40.0,37.0,33.2,29.0,68,46,28,30.24,30.05,3,1,9,0.00
2012-10-30,76.0,60.5,48.0,54.0,45.6,34.0,74,59,45,30.06,29.88,3,1,9,0.00
2012-10-31,84.0,68.9,59.0,64.0,56.9,52.0,97,69,36,29.97,29.87,3,1,9,0.00
2012-11-1,86.0,70.1,56.0,66.0,57.2,51.0,97,67,31,29.98,29.85,3,1,8,0.00
2012-11-2,84.0,70.5,63.0,65.0,60.4,57.0,95,73,44,29.93,29.82,4,2,11,0.00
2012-11-3,85.0,70.7,63.0,67.0,62.1,53.0,97,77,39,29.97,29.86,7,2,12,0.00
2012-11-4,79.0,66.4,57.0,60.0,57.6,56.0,97,76,47,30.02,29.93,4,1,9,0.00
2012-11-5,83.0,68.9,56.0,65.0,57.3,42.0,97,69,47,29.99,29.85,4,1,8,0.00
2012-11-6,80.0,64.0,51.0,45.0,42.2,36.0,60,46,27,30.09,29.97,2,0,6,0.00
2012-11-7,82.0,65.5,51.0,49.0,45.6,42.0,74,51,30,30.11,29.95,5,1,10,0.00
2012-11-8,81.0,68.6,59.0,61.0,55.6,48.0,93,66,35,30.02,29.89,7,3,17,0.00
2012-11-9,81.0,69.9,63.0,64.0,60.5,54.0,92,74,45,29.96,29.83,8,4,19,0.00
2012-11-10,78.0,69.7,62.0,64.0,61.6,59.0,93,77,53,29.90,29.75,10,5,23,0.00
2012-11-11,69.0,69.0,69.0,64.0,64.0,64.0,84,83,83,29.75,29.71,9,6,21,0.00
2012-11-12,58.0,50.9,41.0,31.0,26.5,23.0,51,39,31,30.42,30.31,7,3,12,0.00
2012-11-13,53.0,45.4,36.0,34.0,27.5,24.0,70,50,36,30.43,30.26,6,1,14,0.00
2012-11-14,65.0,51.9,41.0,41.0,34.5,-99.9,76,54,34,30.35,30.19,3,1,7,0.00
2012-11-15,63.0,54.1,44.0,41.0,37.5,31.0,79,55,39,30.23,30.13,2,0,7,0.00
2012-11-16,65.0,55.3,46.0,40.0,35.5,28.0,68,48,36,30.30,30.20,7,2,15,0.00
2012-11-17,68.0,53.8,40.0,37.0,31.3,26.0,59,44,25,30.31,30.19,4,1,8,0.00
2012-11-18,72.0,58.4,46.0,52.0,46.2,33.0,91,65,42,30.21,30.08,5,1,12,0.00
2012-11-19,72.0,60.8,52.0,58.0,53.9,49.0,92,79,61,30.16,30.05,3,2,11,0.00
2012-11-20,84.0,67.3,57.0,61.0,55.8,53.0,90,70,37,30.12,30.01,3,1,8,0.00
2012-11-21,78.0,66.2,59.0,61.0,54.7,48.0,88,69,42,30.15,30.05,4,1,9,0.00
2012-11-22,76.0,64.1,56.0,59.0,55.6,50.0,96,76,50,30.06,29.95,5,2,13,0.00
2012-11-23,64.0,60.1,54.0,59.0,48.0,26.0,97,68,32,30.29,30.03,8,3,15,0.00
2012-11-24,66.0,52.6,43.0,28.0,25.7,22.0,51,36,21,30.33,30.06,4,1,9,0.00
2012-11-25,73.0,60.4,47.0,58.0,45.5,25.0,88,59,38,30.07,29.82,6,3,14,0.00
2012-11-26,83.0,68.3,58.0,63.0,57.3,41.0,95,71,46,30.11,29.81,6,2,15,0.00
2012-11-27,58.0,49.9,41.0,44.0,38.0,34.0,91,65,47,30.29,30.11,6,3,16,0.00
2012-11-28,68.0,50.0,37.0,48.0,41.2,35.0,97,74,45,30.37,30.21,3,1,8,0.00
2012-11-29,69.0,56.3,43.0,55.0,48.9,39.0,95,77,60,30.21,30.05,3,1,11,0.00
2012-11-30,76.0,65.0,59.0,63.0,59.3,54.0,94,83,60,30.08,29.94,4,1,10,0.00
2012-12-1,78.0,70.0,66.0,66.0,63.6,61.0,94,81,59,30.01,29.90,5,3,14,0.00
2012-12-2,75.0,68.2,64.0,67.0,64.0,60.0,93,87,72,30.03,29.93,5,2,13,0.00
2012-12-3,74.0,66.3,62.0,65.0,61.6,58.0,94,85,72,29.96,29.85,5,2,11,0.00
2012-12-4,71.0,63.7,54.0,65.0,54.5,42.0,97,75,41,30.14,29.90,5,1,10,0.00
2012-12-5,71.0,55.9,43.0,46.0,37.5,30.0,74,51,28,30.19,29.97,3,1,8,0.00
2012-12-6,75.0,59.0,50.0,55.0,48.8,-99.9,97,74,44,29.97,29.74,5,2,13,0.00
2012-12-7,75.0,63.7,57.0,62.0,59.2,53.0,97,86,63,29.80,29.70,4,1,12,0.00
2012-12-8,77.0,68.0,62.0,67.0,62.9,59.0,97,85,62,29.80,29.68,3,1,10,0.00
2012-12-9,78.0,67.6,52.0,67.0,61.2,42.0,94,81,63,29.85,29.67,8,2,14,0.00
2012-12-10,51.0,41.2,34.0,42.0,21.7,15.0,70,46,31,30.07,29.84,11,4,25,0.00
2012-12-11,52.0,39.0,27.0,22.0,18.8,16.0,68,46,27,30.17,30.04,4,1,9,0.00
2012-12-12,62.0,46.6,34.0,27.0,22.2,16.0,57,39,25,30.27,30.14,3,1,10,0.00
2012-12-13,66.0,51.8,38.0,48.0,37.4,24.0,82,59,45,30.23,30.10,4,2,12,0.00
2012-12-14,67.0,59.5,51.0,64.0,54.6,42.0,95,84,59,30.10,29.77,5,3,15,0.02
2012-12-15,70.0,64.4,59.0,65.0,50.1,39.0,95,63,35,29.88,29.76,4,0,12,0.01
2012-12-16,71.0,60.4,54.0,61.0,47.7,37.0,97,65,37,29.79,29.67,4,0,8,0.06
2012-12-17,70.0,57.3,46.0,38.0,31.8,25.0,65,41,18,29.90,29.79,4,1,11,0.04
2012-12-18,82.0,66.2,47.0,58.0,39.8,27.0,90,41,20,29.82,29.69,5,2,14,0.00
2012-12-19,79.0,70.0,62.0,66.0,62.3,34.0,95,78,31,29.78,29.52,8,4,19,0.00
2012-12-20,66.0,45.6,33.0,34.0,11.9,2.0,48,27,13,30.42,29.78,10,4,21,0.00
2012-12-21,61.0,43.0,26.0,17.0,9.9,3.0,42,27,13,30.48,30.31,2,0,8,0.00
2012-12-22,65.0,53.1,40.0,54.0,36.4,10.0,84,55,25,30.32,30.01,7,2,15,0.00
2012-12-23,69.0,62.1,58.0,59.0,55.3,49.0,91,79,63,30.01,29.79,5,1,20,0.00
2012-12-24,65.0,55.0,44.0,50.0,36.8,28.0,94,54,27,29.93,29.66,5,1,9,0.00
2012-12-25,64.0,50.2,30.0,60.0,36.3,19.0,93,60,34,30.09,29.48,9,3,23,0.00
2012-12-26,41.0,30.7,23.0,21.0,18.6,16.0,74,61,44,30.24,30.08,6,2,15,0.00
2012-12-27,44.0,35.8,26.0,41.0,30.8,19.0,96,82,66,30.09,29.80,3,1,7,0.01
2012-12-28,57.0,43.8,31.0,46.0,37.2,27.0,98,80,46,30.18,29.77,7,2,22,0.02
2012-12-29,50.0,38.2,27.0,27.0,22.8,20.0,86,56,35,30.43,30.17,4,1,10,0.01
2012-12-30,47.0,40.9,33.0,41.0,26.9,21.0,85,58,42,30.42,30.14,4,2,12,0.00
2012-12-31,59.0,51.5,44.0,58.0,50.6,42.0,99,97,89,30.14,29.89,5,1,13,0.21
2013-1-1,55.0,46.0,36.0,55.0,44.5,33.0,99,94,85,30.19,29.90,7,2,16,0.17